Time;durP1;ratioP1;P1;durP2;ratioP2;P2;SDS_P1;SDS_P2;PMS_P1;PMS_P2;Temp;Humidity;BMP_temperature;BMP_pressure;BME280_temperature;BME280_humidity;BME280_pressure;Samples;Min_cycle;Max_cycle;Signal;HPM_P1;HPM_P2
2023/07/27 00:00:18;;;;;;;5.70;4.30;;;;;;;13.40;81.99;100633.09;4976862;28;20226;-77
2023/07/27 00:02:44;;;;;;;5.70;4.13;;;;;;;13.43;82.06;100624.47;4974354;28;20215;-77
2023/07/27 00:05:12;;;;;;;5.93;4.50;;;;;;;13.48;82.39;100618.13;4974843;28;20991;-77
2023/07/27 00:07:39;;;;;;;6.97;4.80;;;;;;;13.51;82.38;100630.72;4975296;28;20228;-76
2023/07/27 00:10:07;;;;;;;4.93;4.00;;;;;;;13.53;82.45;100625.84;4973295;28;20214;-77
2023/07/27 00:12:33;;;;;;;4.53;4.03;;;;;;;13.55;81.93;100618.31;4974788;28;20810;-77
2023/07/27 00:15:00;;;;;;;5.40;3.97;;;;;;;13.56;82.10;100611.88;4975852;28;20205;-77
2023/07/27 00:17:26;;;;;;;6.20;4.33;;;;;;;13.58;82.03;100609.66;4974652;28;20234;-76
2023/07/27 00:19:53;;;;;;;5.47;4.50;;;;;;;13.61;82.14;100608.97;4974892;28;20204;-76
2023/07/27 00:22:19;;;;;;;5.83;4.50;;;;;;;13.66;82.03;100606.81;4972928;28;20806;-76
2023/07/27 00:24:45;;;;;;;7.13;4.57;;;;;;;13.67;82.04;100608.34;4975215;28;20813;-76
2023/07/27 00:27:13;;;;;;;4.97;4.47;;;;;;;13.73;82.20;100606.22;4974582;28;20251;-77
2023/07/27 00:29:39;;;;;;;6.33;4.33;;;;;;;13.75;82.38;100607.41;4990179;28;20231;-76
2023/07/27 00:32:07;;;;;;;5.33;4.17;;;;;;;13.78;82.52;100606.72;4973871;28;21841;-77
2023/07/27 00:34:33;;;;;;;5.57;4.50;;;;;;;13.80;82.05;100596.53;4976213;28;20206;-77
2023/07/27 00:36:59;;;;;;;5.77;4.47;;;;;;;13.84;82.07;100609.88;4968038;28;20207;-76
2023/07/27 00:39:26;;;;;;;4.33;3.93;;;;;;;13.86;82.22;100600.44;4992300;28;20457;-76
2023/07/27 00:41:52;;;;;;;5.77;4.40;;;;;;;13.90;82.16;100605.81;4971261;28;20844;-76
2023/07/27 00:44:20;;;;;;;5.50;4.67;;;;;;;13.91;81.83;100607.34;4974606;28;20217;-73
2023/07/27 00:46:46;;;;;;;8.47;4.83;;;;;;;13.91;81.91;100608.13;4974709;28;20288;-73
2023/07/27 00:49:13;;;;;;;4.97;4.27;;;;;;;13.90;81.19;100600.53;4973281;28;20325;-74
2023/07/27 00:51:43;;;;;;;4.57;4.07;;;;;;;13.92;81.29;100606.25;4973842;28;20221;-74
2023/07/27 00:54:11;;;;;;;4.63;3.87;;;;;;;13.93;80.81;100591.88;4992652;28;20935;-74
2023/07/27 00:56:39;;;;;;;5.90;4.10;;;;;;;13.93;81.52;100597.94;4974743;28;20579;-74
2023/07/27 00:59:07;;;;;;;7.33;4.07;;;;;;;13.91;81.10;100607.34;4973745;28;20222;-74
2023/07/27 01:01:35;;;;;;;4.50;4.10;;;;;;;13.90;81.04;100593.34;4973507;28;20210;-74
2023/07/27 01:04:02;;;;;;;5.90;4.07;;;;;;;13.88;80.84;100595.53;4973643;28;21006;-74
2023/07/27 01:06:29;;;;;;;5.67;4.03;;;;;;;13.85;80.92;100609.53;4977761;28;20213;-74
2023/07/27 01:08:56;;;;;;;4.13;3.67;;;;;;;13.83;80.90;100611.78;4973937;28;20244;-76
2023/07/27 01:11:28;;;;;;;5.60;4.30;;;;;;;13.79;80.93;100610.13;4971751;28;20214;-76
2023/07/27 01:14:01;;;;;;;6.23;3.80;;;;;;;13.74;80.94;100610.41;4971663;28;20227;-76
2023/07/27 01:16:34;;;;;;;4.50;3.57;;;;;;;13.69;80.70;100605.34;4973401;28;20210;-76
2023/07/27 01:19:13;;;;;;;7.70;3.67;;;;;;;13.64;80.61;100605.63;4988299;28;20633;-77
2023/07/27 01:21:50;;;;;;;4.30;3.80;;;;;;;13.58;80.81;100607.78;4971848;28;20825;-76
2023/07/27 01:24:39;;;;;;;3.53;3.23;;;;;;;13.51;80.57;100604.94;4975191;28;20207;-76
2023/07/27 01:27:18;;;;;;;6.47;3.60;;;;;;;13.44;80.69;100604.00;4971152;28;21880;-76
2023/07/27 01:29:55;;;;;;;4.30;3.67;;;;;;;13.39;80.72;100604.25;4990168;28;20683;-76
2023/07/27 01:32:24;;;;;;;4.87;3.57;;;;;;;13.33;80.84;100606.41;4984153;28;20207;-76
2023/07/27 01:34:57;;;;;;;7.90;3.90;;;;;;;13.27;81.11;100605.13;4987993;28;21308;-76
2023/07/27 01:37:26;;;;;;;5.37;3.77;;;;;;;13.20;80.74;100602.28;4972674;28;20228;-76
2023/07/27 01:39:54;;;;;;;3.93;3.43;;;;;;;13.16;80.73;100600.69;4970543;28;20196;-76
2023/07/27 01:42:24;;;;;;;6.80;3.70;;;;;;;13.11;81.07;100606.22;4971658;28;20951;-76
2023/07/27 01:44:52;;;;;;;3.77;3.20;;;;;;;13.03;80.72;100607.94;4973170;28;20292;-76
2023/07/27 01:47:20;;;;;;;4.17;3.40;;;;;;;12.99;80.54;100601.00;4971892;28;20532;-77
2023/07/27 01:49:49;;;;;;;5.07;3.63;;;;;;;12.93;80.89;100594.41;4971639;28;20883;-76
2023/07/27 01:52:19;;;;;;;5.17;3.53;;;;;;;12.88;81.24;100599.94;4987672;28;20652;-76
2023/07/27 01:54:47;;;;;;;3.87;3.20;;;;;;;12.81;81.08;100597.09;4975582;28;20421;-76
2023/07/27 01:57:15;;;;;;;4.47;3.97;;;;;;;12.76;81.12;100589.38;4971903;28;20745;-76
2023/07/27 01:59:42;;;;;;;5.83;3.97;;;;;;;12.72;81.17;100593.81;4972190;28;20220;-76
2023/07/27 02:02:08;;;;;;;4.17;3.70;;;;;;;12.68;81.53;100606.22;4985217;28;20231;-76
2023/07/27 02:04:35;;;;;;;3.97;3.57;;;;;;;12.64;81.56;100594.75;4973097;28;21846;-76
2023/07/27 02:07:03;;;;;;;4.77;4.10;;;;;;;12.57;81.63;100600.63;4986726;28;21702;-76
2023/07/27 02:09:29;;;;;;;3.97;3.63;;;;;;;12.54;81.59;100587.28;4974442;28;20701;-76
2023/07/27 02:12:01;;;;;;;5.13;3.73;;;;;;;12.50;81.58;100594.38;4972182;28;20212;-76
2023/07/27 02:14:37;;;;;;;4.83;4.03;;;;;;;12.44;81.77;100593.06;4986831;28;20852;-76
2023/07/27 02:17:10;;;;;;;4.17;3.77;;;;;;;12.40;81.72;100592.19;4972100;28;20357;-76
2023/07/27 02:19:40;;;;;;;4.80;4.13;;;;;;;12.36;81.90;100592.09;4972946;28;20232;-76
2023/07/27 02:22:10;;;;;;;5.57;4.07;;;;;;;12.31;82.23;100591.59;4987094;28;20388;-77
2023/07/27 02:24:37;;;;;;;5.63;3.97;;;;;;;12.29;82.06;100591.13;4974541;28;20222;-76
2023/07/27 02:27:05;;;;;;;4.77;4.20;;;;;;;12.27;82.19;100593.34;4970889;28;20212;-76
2023/07/27 02:29:31;;;;;;;7.23;4.20;;;;;;;12.23;82.32;100584.53;4973944;28;20212;-76
2023/07/27 02:31:58;;;;;;;5.27;4.20;;;;;;;12.20;82.42;100588.63;4988415;28;20203;-76
2023/07/27 02:34:24;;;;;;;5.77;4.40;;;;;;;12.16;82.38;100589.63;4970387;28;20207;-76
2023/07/27 02:36:51;;;;;;;5.10;4.17;;;;;;;12.17;82.16;100596.47;4972560;28;20211;-77
2023/07/27 02:39:19;;;;;;;5.17;4.37;;;;;;;12.13;82.79;100595.59;4987726;28;20236;-76
2023/07/27 02:41:45;;;;;;;4.90;4.40;;;;;;;12.11;82.89;100597.81;4970369;28;20214;-76
2023/07/27 02:44:18;;;;;;;9.90;4.87;;;;;;;12.08;83.14;100603.75;4970241;28;20218;-76
2023/07/27 02:46:44;;;;;;;6.97;5.00;;;;;;;12.06;82.95;100595.41;4972578;28;21213;-76
2023/07/27 02:49:10;;;;;;;7.00;5.27;;;;;;;12.05;82.80;100604.41;4971266;28;20209;-76
2023/07/27 02:51:41;;;;;;;5.27;4.73;;;;;;;12.03;82.64;100602.13;4989978;28;20222;-76
2023/07/27 02:54:07;;;;;;;9.40;5.13;;;;;;;12.00;83.27;100602.78;4972120;28;20298;-76
2023/07/27 02:56:35;;;;;;;5.43;4.90;;;;;;;11.97;83.06;100597.38;4971324;28;20700;-76
2023/07/27 02:59:02;;;;;;;6.37;4.90;;;;;;;11.94;83.12;100601.47;4987658;28;20242;-76
2023/07/27 03:01:33;;;;;;;6.40;4.90;;;;;;;11.94;83.14;100603.34;4971488;28;20217;-76
2023/07/27 03:04:04;;;;;;;5.33;4.67;;;;;;;11.92;83.69;100603.69;4974600;28;20356;-76
2023/07/27 03:06:31;;;;;;;5.90;5.17;;;;;;;11.89;83.65;100601.69;4993563;28;20221;-77
2023/07/27 03:08:59;;;;;;;6.47;5.30;;;;;;;11.90;83.08;100600.59;4975308;28;20600;-76
2023/07/27 03:11:26;;;;;;;6.90;5.63;;;;;;;11.88;83.36;100604.69;4975083;28;20214;-76
2023/07/27 03:13:54;;;;;;;9.97;5.50;;;;;;;11.86;84.02;100599.72;4989444;28;20600;-77
2023/07/27 03:16:20;;;;;;;6.20;5.60;;;;;;;11.85;84.01;100602.72;4975321;28;20211;-76
2023/07/27 03:18:48;;;;;;;7.70;5.50;;;;;;;11.87;83.57;100603.91;4978088;28;20344;-76
2023/07/27 03:21:14;;;;;;;6.20;5.10;;;;;;;11.86;84.03;100606.88;4973852;28;20215;-77
2023/07/27 03:23:41;;;;;;;7.57;5.53;;;;;;;11.84;84.24;100625.75;4974986;28;20208;-77
2023/07/27 03:26:11;;;;;;;5.90;5.30;;;;;;;11.85;84.32;100610.66;4976189;28;20360;-77
2023/07/27 03:28:37;;;;;;;8.53;5.90;;;;;;;11.85;84.28;100610.66;4993031;28;20250;-77
2023/07/27 03:31:15;;;;;;;7.27;6.37;;;;;;;11.82;84.17;100609.44;4974127;28;20219;-77
2023/07/27 03:33:41;;;;;;;6.43;5.83;;;;;;;11.82;84.23;100606.00;4974761;28;22016;-76
2023/07/27 03:36:08;;;;;;;6.63;5.27;;;;;;;11.81;84.37;100610.50;4992119;28;20214;-77
2023/07/27 03:38:35;;;;;;;7.37;6.13;;;;;;;11.82;84.64;100603.38;4973871;28;20356;-77
2023/07/27 03:41:02;;;;;;;5.80;5.20;;;;;;;11.81;83.89;100597.28;4973748;28;20963;-77
2023/07/27 03:43:29;;;;;;;7.50;6.20;;;;;;;11.82;84.47;100600.72;4972534;28;20207;-77
2023/07/27 03:45:55;;;;;;;9.37;6.57;;;;;;;11.80;84.21;100598.41;4977349;28;20295;-77
2023/07/27 03:48:25;;;;;;;8.43;6.57;;;;;;;11.84;84.18;100591.34;4974087;28;20225;-77
2023/07/27 03:50:52;;;;;;;10.27;7.27;;;;;;;11.87;84.92;100601.28;4973493;28;20218;-76
2023/07/27 03:53:18;;;;;;;8.97;7.00;;;;;;;11.90;85.14;100597.94;4974526;28;20707;-77
2023/07/27 03:55:45;;;;;;;9.03;6.87;;;;;;;11.91;84.62;100601.38;4975618;28;20282;-75
2023/07/27 03:58:12;;;;;;;10.20;7.07;;;;;;;11.93;85.04;100605.22;4975159;28;20232;-74
2023/07/27 04:00:38;;;;;;;6.60;5.90;;;;;;;11.93;84.73;100602.59;4995106;28;20692;-74
2023/07/27 04:03:05;;;;;;;9.57;7.03;;;;;;;11.92;84.69;100609.00;4973598;28;20307;-74
2023/07/27 04:05:33;;;;;;;11.20;7.30;;;;;;;11.95;84.70;100612.84;4975972;28;20226;-74
2023/07/27 04:07:59;;;;;;;9.87;7.67;;;;;;;11.95;84.76;100605.66;4975207;28;20231;-74
2023/07/27 04:10:25;;;;;;;11.77;8.63;;;;;;;11.99;84.54;100609.19;4975759;28;20203;-75
2023/07/27 04:12:52;;;;;;;11.57;8.23;;;;;;;12.05;85.20;100613.13;4976067;28;20878;-74
2023/07/27 04:15:18;;;;;;;9.20;7.43;;;;;;;12.10;85.39;100607.63;4976456;28;20204;-74
2023/07/27 04:17:45;;;;;;;10.50;7.53;;;;;;;12.14;84.97;100613.78;4977599;28;20745;-75
2023/07/27 04:20:12;;;;;;;12.30;8.43;;;;;;;12.20;84.99;100611.66;4977761;28;20856;-74
2023/07/27 04:22:39;;;;;;;12.13;7.83;;;;;;;12.23;84.94;100606.50;4991025;28;20759;-73
2023/07/27 04:25:07;;;;;;;12.93;7.80;;;;;;;12.28;84.93;100611.56;4979430;28;20529;-74
2023/07/27 04:27:34;;;;;;;8.47;7.57;;;;;;;12.34;84.84;100615.50;4978525;28;20231;-74
2023/07/27 04:30:00;;;;;;;9.87;8.00;;;;;;;12.40;85.01;100610.72;4976618;28;21436;-72
2023/07/27 04:32:26;;;;;;;10.13;8.33;;;;;;;12.47;84.89;100616.25;4975730;28;20212;-72
2023/07/27 04:34:53;;;;;;;10.57;8.37;;;;;;;12.53;84.90;100612.25;4977077;28;21053;-73
2023/07/27 04:37:20;;;;;;;10.20;8.73;;;;;;;12.58;84.57;100617.31;4974911;28;20694;-73
2023/07/27 04:39:48;;;;;;;12.03;8.07;;;;;;;12.63;84.23;100622.34;4978844;28;20219;-74
2023/07/27 04:42:14;;;;;;;11.50;8.70;;;;;;;12.70;83.79;100625.19;4973786;28;20208;-73
2023/07/27 04:44:41;;;;;;;11.40;8.80;;;;;;;12.74;83.96;100621.53;4976794;28;20222;-74
2023/07/27 04:47:07;;;;;;;10.33;8.03;;;;;;;12.81;83.82;100613.78;4976175;28;20232;-74
2023/07/27 04:49:33;;;;;;;10.40;8.83;;;;;;;12.90;83.93;100605.66;4972692;28;20208;-73
2023/07/27 04:52:00;;;;;;;10.53;8.20;;;;;;;12.96;83.54;100604.34;4975180;28;20224;-74
2023/07/27 04:54:26;;;;;;;11.40;8.67;;;;;;;13.02;82.86;100598.44;4975908;28;20680;-74
2023/07/27 04:56:54;;;;;;;13.00;8.37;;;;;;;13.10;83.02;100602.81;4991226;28;20227;-73
2023/07/27 04:59:20;;;;;;;13.17;8.33;;;;;;;13.19;83.30;100602.66;4992059;28;20784;-73
2023/07/27 05:01:47;;;;;;;10.30;8.10;;;;;;;13.26;82.57;100595.63;4975642;28;20203;-73
2023/07/27 05:04:13;;;;;;;12.60;9.43;;;;;;;13.34;82.29;100601.88;4978539;28;20222;-73
2023/07/27 05:06:40;;;;;;;11.60;8.00;;;;;;;13.43;81.85;100605.13;4976281;28;20211;-73
2023/07/27 05:09:06;;;;;;;11.23;8.10;;;;;;;13.49;81.74;100604.53;4975166;28;21842;-73
2023/07/27 05:11:33;;;;;;;12.13;8.73;;;;;;;13.56;81.49;100609.25;4989760;28;20908;-73
2023/07/27 05:14:00;;;;;;;9.40;8.40;;;;;;;13.64;81.58;100606.41;4975162;28;21340;-73
2023/07/27 05:16:27;;;;;;;12.07;8.73;;;;;;;13.70;81.35;100610.31;4974847;28;20578;-75
2023/07/27 05:18:53;;;;;;;11.13;7.90;;;;;;;13.77;80.75;100615.78;4977613;28;20229;-73
2023/07/27 05:21:20;;;;;;;11.97;8.27;;;;;;;13.82;80.53;100620.06;4975850;28;20210;-73
2023/07/27 05:23:46;;;;;;;11.17;7.83;;;;;;;13.89;80.46;100615.69;4975426;28;20207;-72
2023/07/27 05:26:13;;;;;;;10.10;8.10;;;;;;;13.97;80.98;100622.69;4975356;28;20205;-72
2023/07/27 05:28:39;;;;;;;12.33;8.20;;;;;;;14.06;80.92;100623.25;4986335;28;20239;-73
2023/07/27 05:31:07;;;;;;;10.40;8.00;;;;;;;14.15;80.07;100620.41;4975616;28;21849;-73
2023/07/27 05:33:34;;;;;;;9.83;7.37;;;;;;;14.24;79.80;100619.13;4972515;28;21431;-74
2023/07/27 05:36:00;;;;;;;10.73;7.80;;;;;;;14.32;79.67;100617.38;4973204;28;20264;-73
2023/07/27 05:38:26;;;;;;;9.70;7.60;;;;;;;14.39;79.59;100615.63;4972135;28;20245;-73
2023/07/27 05:40:53;;;;;;;11.87;8.27;;;;;;;14.49;79.52;100615.06;4971059;28;20228;-73
2023/07/27 05:43:19;;;;;;;10.87;7.70;;;;;;;14.60;79.45;100618.69;4973469;28;20217;-73
2023/07/27 05:45:45;;;;;;;10.43;8.47;;;;;;;14.70;79.39;100612.81;4976566;28;20334;-73
2023/07/27 05:48:13;;;;;;;11.63;9.00;;;;;;;14.82;78.56;100614.56;4976011;28;20227;-73
2023/07/27 05:50:40;;;;;;;12.67;8.77;;;;;;;14.93;78.55;100620.84;4975631;28;20215;-73
2023/07/27 05:53:06;;;;;;;13.77;8.80;;;;;;;15.03;78.50;100618.38;4973296;28;21493;-73
2023/07/27 05:55:32;;;;;;;12.77;9.47;;;;;;;15.15;78.21;100620.84;4976350;28;20204;-74
2023/07/27 05:57:59;;;;;;;14.07;9.40;;;;;;;15.27;77.90;100617.25;4976205;28;20761;-73
2023/07/27 06:00:25;;;;;;;11.90;8.70;;;;;;;15.37;77.94;100612.13;4974141;28;20227;-73
2023/07/27 06:02:55;;;;;;;11.23;8.47;;;;;;;15.50;77.39;100613.50;4972745;28;20369;-72
2023/07/27 06:05:22;;;;;;;12.03;8.40;;;;;;;15.61;76.76;100613.63;4974988;28;20923;-73
2023/07/27 06:07:49;;;;;;;14.47;9.30;;;;;;;15.71;76.75;100608.47;4970879;28;20223;-72
2023/07/27 06:10:15;;;;;;;13.13;8.87;;;;;;;15.85;75.72;100602.59;4977264;28;20208;-72
2023/07/27 06:12:42;;;;;;;10.17;7.40;;;;;;;15.94;76.12;100608.44;4970347;28;20216;-73
2023/07/27 06:15:09;;;;;;;10.47;7.20;;;;;;;16.03;75.87;100607.03;4972972;28;20215;-73
2023/07/27 06:17:36;;;;;;;7.07;6.30;;;;;;;16.15;75.33;100603.38;4975583;28;20226;-73
2023/07/27 06:20:02;;;;;;;6.67;5.90;;;;;;;16.25;74.81;100598.16;4975585;28;20828;-72
2023/07/27 06:22:30;;;;;;;5.47;4.60;;;;;;;16.37;75.46;100603.28;4975293;28;20212;-73
2023/07/27 06:24:56;;;;;;;3.83;3.50;;;;;;;16.47;74.39;100597.34;4976180;28;20212;-74
2023/07/27 06:27:22;;;;;;;4.70;3.73;;;;;;;16.55;73.77;100606.94;4990715;28;20236;-74
2023/07/27 06:29:49;;;;;;;6.83;3.80;;;;;;;16.60;72.74;100601.28;4975362;28;21297;-73
2023/07/27 06:32:15;;;;;;;3.20;2.90;;;;;;;16.66;74.52;100605.16;4975477;28;20213;-73
2023/07/27 06:34:41;;;;;;;3.17;2.87;;;;;;;16.72;73.15;100601.03;4973129;28;20204;-73
2023/07/27 06:37:08;;;;;;;4.27;2.63;;;;;;;16.76;73.89;100606.41;4978018;28;20258;-74
2023/07/27 06:39:35;;;;;;;3.00;2.70;;;;;;;16.78;70.91;100602.25;4977529;28;20585;-73
2023/07/27 06:42:02;;;;;;;2.97;2.60;;;;;;;16.84;71.09;100608.00;4979335;28;20315;-73
2023/07/27 06:44:32;;;;;;;4.27;2.50;;;;;;;16.89;70.85;100602.34;4992342;28;20231;-74
2023/07/27 06:46:58;;;;;;;3.10;2.57;;;;;;;16.94;68.22;100607.34;4977834;28;20211;-74
2023/07/27 06:49:24;;;;;;;2.67;2.47;;;;;;;17.00;70.16;100600.53;4980546;28;20212;-74
2023/07/27 06:51:51;;;;;;;4.57;2.57;;;;;;;17.02;67.91;100599.03;4976993;28;20290;-73
2023/07/27 06:54:18;;;;;;;5.83;2.63;;;;;;;17.07;69.30;100593.38;4978245;28;20210;-74
2023/07/27 06:56:46;;;;;;;3.23;2.80;;;;;;;17.11;68.84;100594.16;4977201;28;20231;-73
2023/07/27 06:59:12;;;;;;;4.27;2.90;;;;;;;17.16;69.25;100588.50;4977386;28;21395;-74
2023/07/27 07:01:39;;;;;;;4.23;2.33;;;;;;;17.23;69.25;100591.22;4978098;28;20874;-73
2023/07/27 07:04:05;;;;;;;5.07;3.17;;;;;;;17.29;68.73;100591.66;4979817;28;20221;-73
2023/07/27 07:06:32;;;;;;;2.90;2.60;;;;;;;17.34;68.27;100583.31;4976807;28;20293;-73
2023/07/27 07:08:59;;;;;;;2.57;2.33;;;;;;;17.42;67.47;100582.22;4977283;28;20224;-74
2023/07/27 07:11:25;;;;;;;3.00;2.70;;;;;;;17.49;69.25;100576.97;4977008;28;20242;-75
2023/07/27 07:13:53;;;;;;;3.07;2.37;;;;;;;17.57;67.64;100578.53;4975261;28;20211;-74
2023/07/27 07:16:19;;;;;;;2.60;2.40;;;;;;;17.61;64.66;100573.97;4981401;28;20227;-74
2023/07/27 07:18:46;;;;;;;2.60;2.40;;;;;;;17.67;67.95;100580.50;4977456;28;20230;-74
2023/07/27 07:21:12;;;;;;;5.50;2.40;;;;;;;17.75;65.94;100584.75;4976279;28;20220;-74
2023/07/27 07:23:38;;;;;;;4.17;2.30;;;;;;;17.83;67.66;100579.09;4974851;28;20273;-74
2023/07/27 07:26:05;;;;;;;2.87;2.10;;;;;;;17.90;66.28;100579.09;4976040;28;20212;-74
2023/07/27 07:28:31;;;;;;;2.97;2.10;;;;;;;17.99;65.69;100579.53;4977437;28;20234;-74
2023/07/27 07:30:59;;;;;;;2.60;2.20;;;;;;;18.08;66.91;100571.97;4976437;28;20204;-77
2023/07/27 07:33:25;;;;;;;2.90;2.40;;;;;;;18.18;66.05;100559.78;4975564;28;20208;-76
2023/07/27 07:35:51;;;;;;;2.87;2.20;;;;;;;18.27;66.37;100558.28;4975872;28;20203;-77
2023/07/27 07:38:18;;;;;;;2.93;2.37;;;;;;;18.33;66.30;100556.81;4977628;28;20231;-76
2023/07/27 07:40:46;;;;;;;2.83;2.17;;;;;;;18.40;64.82;100556.81;4980353;28;20234;-76
2023/07/27 07:43:12;;;;;;;2.27;2.07;;;;;;;18.51;64.00;100557.63;4993357;28;20906;-76
2023/07/27 07:45:39;;;;;;;3.07;2.37;;;;;;;18.60;62.86;100549.22;4976886;28;20270;-76
2023/07/27 07:48:07;;;;;;;2.90;2.40;;;;;;;18.71;68.89;100563.38;4976382;28;20418;-76
2023/07/27 07:50:36;;;;;;;2.27;2.07;;;;;;;18.78;67.98;100558.06;4978193;28;21977;-76
2023/07/27 07:53:05;;;;;;;2.37;2.17;;;;;;;18.89;68.91;100554.22;4977249;28;20219;-76
2023/07/27 07:55:34;;;;;;;3.20;2.37;;;;;;;18.98;65.77;100559.97;4978522;28;20212;-76
2023/07/27 07:58:01;;;;;;;2.80;2.30;;;;;;;19.12;66.60;100551.19;4977847;28;20999;-76
2023/07/27 08:00:27;;;;;;;4.63;2.20;;;;;;;19.21;63.71;100547.03;4977934;28;20220;-73
2023/07/27 08:02:54;;;;;;;3.77;2.30;;;;;;;19.33;64.58;100554.66;4974487;28;20640;-74
2023/07/27 08:05:21;;;;;;;3.73;2.20;;;;;;;19.43;63.91;100540.50;4975163;28;20212;-74
2023/07/27 08:07:48;;;;;;;3.47;2.27;;;;;;;19.51;62.77;100539.31;4978009;28;20234;-73
2023/07/27 08:10:14;;;;;;;3.07;2.30;;;;;;;19.63;62.53;100540.81;4975639;28;20204;-73
2023/07/27 08:12:41;;;;;;;3.63;2.10;;;;;;;19.73;62.74;100529.31;4969445;28;20436;-74
2023/07/27 08:15:08;;;;;;;3.00;2.50;;;;;;;19.82;62.48;100535.03;4973146;28;20211;-74
2023/07/27 08:17:34;;;;;;;2.63;2.20;;;;;;;19.92;60.30;100534.97;4975238;28;20235;-73
2023/07/27 08:20:01;;;;;;;2.27;2.07;;;;;;;20.02;64.94;100525.41;4976527;28;21811;-74
2023/07/27 08:22:29;;;;;;;4.33;2.30;;;;;;;20.13;63.23;100520.78;4976127;28;20215;-74
2023/07/27 08:24:56;;;;;;;3.47;2.27;;;;;;;20.28;59.56;100516.88;4975172;28;20207;-74
2023/07/27 08:27:22;;;;;;;3.60;2.40;;;;;;;20.40;58.17;100519.09;4973682;28;20317;-74
2023/07/27 08:29:48;;;;;;;4.17;2.40;;;;;;;20.50;61.00;100518.25;4975812;28;20631;-73
2023/07/27 08:32:15;;;;;;;4.20;2.73;;;;;;;20.63;57.92;100508.59;4974431;28;20841;-74
2023/07/27 08:34:41;;;;;;;3.33;2.00;;;;;;;20.77;55.39;100509.25;4976692;28;20950;-73
2023/07/27 08:37:07;;;;;;;3.30;2.47;;;;;;;20.90;60.78;100510.31;4974452;28;20769;-74
2023/07/27 08:39:35;;;;;;;2.63;2.10;;;;;;;21.08;55.99;100513.63;4991484;28;20212;-74
2023/07/27 08:42:02;;;;;;;2.47;2.00;;;;;;;21.25;57.64;100512.69;4973534;28;21439;-73
2023/07/27 08:44:29;;;;;;;3.60;2.47;;;;;;;21.43;53.30;100507.91;4975760;28;20212;-74
2023/07/27 08:46:57;;;;;;;2.40;2.20;;;;;;;21.59;52.54;100502.00;4977627;28;20230;-73
2023/07/27 08:49:24;;;;;;;3.17;2.17;;;;;;;21.68;52.11;100494.25;4966072;28;20211;-73
2023/07/27 08:51:50;;;;;;;2.20;1.90;;;;;;;21.74;52.68;100490.69;4986940;28;21317;-73
2023/07/27 08:54:17;;;;;;;4.23;2.43;;;;;;;21.86;52.40;100500.16;4974348;28;20208;-74
2023/07/27 08:56:44;;;;;;;2.67;2.30;;;;;;;21.97;52.71;100504.25;4976940;28;20208;-73
2023/07/27 08:59:11;;;;;;;2.90;2.20;;;;;;;22.01;52.15;100499.59;4974372;28;20605;-73
2023/07/27 09:01:38;;;;;;;3.10;2.37;;;;;;;22.03;50.71;100483.81;4974999;28;20238;-74
2023/07/27 09:04:04;;;;;;;2.57;2.23;;;;;;;22.09;51.60;100487.56;4974590;28;20226;-73
2023/07/27 09:06:43;;;;;;;2.53;2.33;;;;;;;22.13;51.92;100488.28;4975953;28;20211;-74
2023/07/27 09:09:14;;;;;;;2.73;2.40;;;;;;;22.18;54.81;100477.09;4977358;28;20241;-74
2023/07/27 09:11:42;;;;;;;3.33;2.40;;;;;;;22.22;49.68;100480.50;4976548;28;20204;-74
2023/07/27 09:14:09;;;;;;;2.80;2.10;;;;;;;22.24;53.29;100480.84;4975063;28;20212;-74
2023/07/27 09:16:37;;;;;;;2.73;2.23;;;;;;;22.24;51.75;100474.72;4977352;28;20322;-73
2023/07/27 09:19:04;;;;;;;2.40;2.07;;;;;;;22.30;53.29;100476.50;4974538;28;21431;-74
2023/07/27 09:21:38;;;;;;;3.10;2.00;;;;;;;22.33;56.95;100472.25;4976263;28;21162;-74
2023/07/27 09:24:05;;;;;;;3.83;2.40;;;;;;;22.37;53.73;100475.66;4976899;28;20206;-74
2023/07/27 09:26:32;;;;;;;2.27;1.77;;;;;;;22.45;50.22;100472.47;4975744;28;20441;-72
2023/07/27 09:29:03;;;;;;;4.50;2.60;;;;;;;22.54;52.89;100467.34;4975398;28;20232;-72
2023/07/27 09:31:35;;;;;;;2.57;1.90;;;;;;;22.62;49.47;100457.22;4976137;28;20441;-72
2023/07/27 09:34:05;;;;;;;3.97;2.10;;;;;;;22.65;47.27;100459.88;4974322;28;20211;-72
2023/07/27 09:36:32;;;;;;;2.60;2.07;;;;;;;22.67;47.61;100456.78;4975488;28;20219;-72
2023/07/27 09:38:58;;;;;;;4.47;2.00;;;;;;;22.71;50.06;100458.22;4975961;28;20230;-72
2023/07/27 09:41:25;;;;;;;4.50;2.20;;;;;;;22.71;48.55;100460.16;4976194;28;20224;-71
2023/07/27 09:43:52;;;;;;;3.20;2.13;;;;;;;22.70;47.43;100450.56;4970780;28;20220;-73
2023/07/27 09:46:21;;;;;;;2.13;1.90;;;;;;;22.72;48.16;100448.97;4975415;28;20212;-72
2023/07/27 09:48:50;;;;;;;5.10;2.13;;;;;;;22.74;49.10;100448.56;4974257;28;20238;-72
2023/07/27 09:51:17;;;;;;;3.97;2.10;;;;;;;22.74;52.46;100443.97;4975162;28;21301;-71
2023/07/27 09:53:45;;;;;;;3.03;2.20;;;;;;;22.75;48.67;100434.69;4975519;28;20453;-72
2023/07/27 09:56:12;;;;;;;3.85;2.17;;;;;;;22.82;52.91;100433.84;4974443;28;20211;-72
2023/07/27 09:58:39;;;;;;;2.00;1.77;;;;;;;22.84;46.42;100424.16;4974754;28;21455;-73
2023/07/27 10:01:05;;;;;;;2.25;2.05;;;;;;;22.90;53.36;100427.13;4974039;28;20227;-73
2023/07/27 10:03:33;;;;;;;2.15;1.95;;;;;;;22.93;46.81;100429.75;4975597;28;20215;-72
2023/07/27 10:06:01;;;;;;;3.30;1.90;;;;;;;22.96;45.20;100418.19;4975820;28;20716;-73
2023/07/27 10:08:28;;;;;;;2.47;1.95;;;;;;;23.04;45.07;100416.13;4973552;28;20246;-73
2023/07/27 10:10:55;;;;;;;4.35;2.33;;;;;;;23.18;46.95;100411.25;4972385;28;20685;-73
2023/07/27 10:13:36;;;;;;;3.05;1.73;;;;;;;23.32;44.94;100412.91;4968093;28;20215;-73
2023/07/27 10:16:02;;;;;;;2.58;2.00;;;;;;;23.43;43.97;100408.09;4973877;28;20345;-73
2023/07/27 10:18:31;;;;;;;2.63;1.95;;;;;;;23.49;44.79;100393.69;4973848;28;20601;-72
2023/07/27 10:21:27;;;;;;;3.70;2.13;;;;;;;23.50;45.20;100395.19;4976989;28;20957;-73
2023/07/27 10:23:55;;;;;;;3.92;2.10;;;;;;;23.54;47.59;100392.44;4976202;28;20223;-73
2023/07/27 10:26:39;;;;;;;2.50;1.63;;;;;;;23.52;44.51;100394.03;4975355;28;21297;-73
2023/07/27 10:29:15;;;;;;;2.63;1.90;;;;;;;23.63;46.42;100389.94;4974046;28;20231;-73
2023/07/27 10:31:43;;;;;;;3.92;1.90;;;;;;;23.63;47.01;100388.00;4974499;28;21093;-72
2023/07/27 10:34:14;;;;;;;2.30;1.77;;;;;;;23.60;45.94;100385.38;4975772;28;20330;-72
2023/07/27 10:36:56;;;;;;;1.95;1.73;;;;;;;23.58;44.75;100377.72;4974490;28;21770;-72
2023/07/27 10:39:26;;;;;;;3.38;1.98;;;;;;;23.69;47.47;100378.25;4978638;28;20204;-71
2023/07/27 10:42:05;;;;;;;2.42;1.88;;;;;;;23.73;44.36;100364.69;4975981;28;20223;-72
2023/07/27 10:44:42;;;;;;;1.98;1.70;;;;;;;23.82;49.71;100362.16;4975069;28;21265;-72
2023/07/27 10:47:09;;;;;;;3.08;1.95;;;;;;;23.89;46.96;100364.72;4974325;28;20617;-72
2023/07/27 10:49:38;;;;;;;5.00;2.20;;;;;;;23.95;46.72;100362.31;4972711;28;20263;-72
2023/07/27 10:52:07;;;;;;;3.28;2.55;;;;;;;24.04;43.15;100346.28;4973211;28;20601;-72
2023/07/27 10:54:37;;;;;;;2.50;1.92;;;;;;;24.10;42.92;100350.00;4989082;28;20559;-72
2023/07/27 10:57:06;;;;;;;2.67;1.85;;;;;;;24.11;43.79;100348.81;4975140;28;20211;-72
2023/07/27 10:59:37;;;;;;;2.10;1.58;;;;;;;24.19;44.18;100345.53;4974586;28;20199;-72
2023/07/27 11:02:06;;;;;;;3.80;1.90;;;;;;;24.22;46.04;100346.63;4972509;28;20243;-72
2023/07/27 11:04:33;;;;;;;3.38;1.58;;;;;;;24.20;45.19;100346.28;4974069;28;20230;-72
2023/07/27 11:07:00;;;;;;;3.92;1.95;;;;;;;24.18;44.83;100341.31;4973420;28;20725;-72
2023/07/27 11:09:28;;;;;;;2.67;1.90;;;;;;;24.22;44.43;100335.81;4976018;28;20776;-72
2023/07/27 11:11:59;;;;;;;2.70;1.92;;;;;;;24.26;49.96;100333.81;4972502;28;20216;-72
2023/07/27 11:14:25;;;;;;;4.65;1.80;;;;;;;24.22;46.91;100344.69;4973509;28;20808;-72
2023/07/27 11:16:52;;;;;;;3.03;1.88;;;;;;;24.26;46.87;100339.97;4973376;28;20224;-72
2023/07/27 11:19:19;;;;;;;4.07;1.85;;;;;;;24.25;44.44;100324.94;4973597;28;20212;-72
2023/07/27 11:21:45;;;;;;;3.25;1.58;;;;;;;24.18;51.69;100322.44;4974195;28;20228;-72
2023/07/27 11:24:16;;;;;;;2.80;1.70;;;;;;;24.15;42.62;100320.56;4978077;28;20231;-72
2023/07/27 11:26:43;;;;;;;2.38;1.83;;;;;;;24.10;47.92;100312.97;4977037;28;20577;-72